Time;durP1;ratioP1;P1;durP2;ratioP2;P2;SDS_P1;SDS_P2;PMS_P1;PMS_P2;Temp;Humidity;BMP_temperature;BMP_pressure;BME280_temperature;BME280_humidity;BME280_pressure;Samples;Min_cycle;Max_cycle;Signal;HPM_P1;HPM_P2
2022/11/21 00:00:03;;;;;;;34.08;24.35;;;1.50;99.90;;;;;;5056474;28;20054;-43
2022/11/21 00:02:29;;;;;;;33.13;24.48;;;1.50;99.90;;;;;;5056957;28;20525;-44
2022/11/21 00:04:55;;;;;;;34.40;23.27;;;1.40;99.90;;;;;;5056548;28;20048;-43
2022/11/21 00:07:21;;;;;;;31.95;23.45;;;1.50;99.90;;;;;;5057367;28;20052;-46
2022/11/21 00:09:46;;;;;;;30.95;22.98;;;1.40;99.90;;;;;;5057251;28;20048;-43
2022/11/21 00:12:14;;;;;;;32.58;22.92;;;1.50;99.90;;;;;;5056757;28;20391;-44
2022/11/21 00:14:40;;;;;;;32.88;24.02;;;1.50;99.90;;;;;;5056124;28;20059;-41
2022/11/21 00:17:05;;;;;;;31.10;22.95;;;1.50;99.90;;;;;;5054798;28;20056;-42
2022/11/21 00:19:32;;;;;;;31.98;22.60;;;1.40;99.90;;;;;;5055554;28;20467;-45
2022/11/21 00:21:58;;;;;;;33.60;22.98;;;1.50;99.90;;;;;;5051648;28;20080;-42
2022/11/21 00:24:23;;;;;;;31.77;22.90;;;1.50;99.90;;;;;;5056109;28;20140;-47
2022/11/21 00:26:49;;;;;;;32.55;23.15;;;1.50;99.90;;;;;;5055792;28;20059;-44
2022/11/21 00:29:14;;;;;;;32.72;22.73;;;1.50;99.90;;;;;;5056279;28;20804;-42
2022/11/21 00:31:40;;;;;;;32.25;22.52;;;1.40;99.90;;;;;;5056358;28;20139;-41
2022/11/21 00:34:06;;;;;;;33.95;24.38;;;1.40;99.90;;;;;;5055517;28;20795;-42
2022/11/21 00:36:31;;;;;;;32.28;22.25;;;1.50;99.90;;;;;;5055492;28;20084;-45
2022/11/21 00:38:57;;;;;;;30.23;21.75;;;1.40;99.90;;;;;;5056876;28;20048;-42
2022/11/21 00:41:22;;;;;;;34.30;24.38;;;1.40;99.90;;;;;;5055085;28;20099;-43
2022/11/21 00:43:48;;;;;;;31.98;23.35;;;1.40;99.90;;;;;;5056419;28;20406;-44
2022/11/21 00:46:14;;;;;;;30.65;21.88;;;1.40;99.90;;;;;;5041983;28;20056;-42
2022/11/21 00:48:39;;;;;;;32.28;22.55;;;1.40;99.90;;;;;;5055872;28;20044;-42
2022/11/21 00:51:05;;;;;;;35.90;24.20;;;1.40;99.90;;;;;;5055635;28;20045;-45
2022/11/21 00:53:31;;;;;;;29.75;22.48;;;1.40;99.90;;;;;;5056220;28;20060;-42
2022/11/21 00:55:57;;;;;;;33.20;23.98;;;1.40;99.90;;;;;;5054839;28;20048;-43
2022/11/21 00:58:23;;;;;;;33.30;23.52;;;1.40;99.90;;;;;;5056554;28;20057;-47
2022/11/21 01:00:48;;;;;;;30.48;21.55;;;1.40;99.90;;;;;;5055018;28;20537;-45
2022/11/21 01:03:14;;;;;;;31.65;22.35;;;1.40;99.90;;;;;;5056298;28;20048;-42
2022/11/21 01:05:40;;;;;;;33.50;23.33;;;1.40;99.90;;;;;;5054903;28;20045;-44
2022/11/21 01:08:05;;;;;;;32.60;23.85;;;1.40;99.90;;;;;;5056094;28;20051;-43
2022/11/21 01:10:32;;;;;;;33.22;23.77;;;1.40;99.90;;;;;;5055434;28;20045;-43
2022/11/21 01:12:58;;;;;;;34.53;24.55;;;1.40;99.90;;;;;;5054713;28;20063;-43
2022/11/21 01:15:23;;;;;;;35.60;24.98;;;1.40;99.90;;;;;;5054682;28;20044;-47
2022/11/21 01:17:49;;;;;;;30.58;23.40;;;1.40;99.90;;;;;;5056341;28;20423;-41
2022/11/21 01:20:14;;;;;;;31.13;23.50;;;1.40;99.90;;;;;;5054369;28;20048;-41
2022/11/21 01:22:40;;;;;;;34.85;23.45;;;1.40;99.90;;;;;;5053879;28;20530;-43
2022/11/21 01:25:06;;;;;;;32.65;24.63;;;1.40;99.90;;;;;;5054022;28;20136;-44
2022/11/21 01:27:32;;;;;;;32.85;23.20;;;1.40;99.90;;;;;;5054186;28;20048;-46
2022/11/21 01:29:58;;;;;;;36.72;24.15;;;1.30;99.90;;;;;;5055348;28;20051;-43
2022/11/21 01:32:24;;;;;;;33.03;23.55;;;1.40;99.90;;;;;;5055721;28;20457;-43
2022/11/21 01:34:49;;;;;;;31.92;23.27;;;1.40;99.90;;;;;;5053389;28;20037;-42
2022/11/21 01:37:15;;;;;;;33.45;23.23;;;1.40;99.90;;;;;;5053814;28;20570;-46
2022/11/21 01:39:41;;;;;;;31.80;22.60;;;1.40;99.90;;;;;;5053694;28;20122;-41
2022/11/21 01:42:11;;;;;;;35.17;25.65;;;1.40;99.90;;;;;;5054981;28;20075;-44
2022/11/21 01:44:52;;;;;;;35.00;26.20;;;1.40;99.90;;;;;;5050052;28;20489;-41
2022/11/21 01:47:18;;;;;;;32.08;23.33;;;1.30;99.90;;;;;;5045778;28;20134;-45
2022/11/21 01:49:45;;;;;;;31.27;24.00;;;1.30;99.90;;;;;;5055919;28;20208;-42
2022/11/21 01:52:17;;;;;;;33.47;25.08;;;1.40;99.90;;;;;;5055371;28;20400;-43
2022/11/21 01:55:09;;;;;;;30.20;22.38;;;1.30;99.90;;;;;;5054888;28;20060;-43
2022/11/21 01:57:47;;;;;;;33.60;23.20;;;1.40;99.90;;;;;;5009162;28;20065;-42
2022/11/21 02:00:23;;;;;;;35.03;24.58;;;1.40;99.90;;;;;;5004030;28;20069;-42
2022/11/21 02:02:54;;;;;;;30.13;23.38;;;1.40;99.90;;;;;;4999239;28;20459;-44
2022/11/21 02:05:24;;;;;;;31.05;23.17;;;1.40;99.90;;;;;;5009849;28;20487;-41
2022/11/21 02:07:53;;;;;;;31.67;23.80;;;1.40;99.90;;;;;;5000782;28;20057;-42
2022/11/21 02:10:19;;;;;;;34.58;24.00;;;1.40;99.90;;;;;;4979015;28;20064;-42
2022/11/21 02:12:51;;;;;;;33.58;23.88;;;1.30;99.90;;;;;;5012092;28;20049;-42
2022/11/21 02:15:17;;;;;;;36.25;25.75;;;1.30;99.90;;;;;;4997211;28;20061;-44
2022/11/21 02:17:43;;;;;;;32.53;24.13;;;1.30;99.90;;;;;;4995432;28;20653;-42
2022/11/21 02:20:12;;;;;;;35.60;24.00;;;1.30;99.90;;;;;;5017793;28;20556;-41
2022/11/21 02:22:50;;;;;;;33.17;24.67;;;1.30;99.90;;;;;;5010836;28;20053;-46
2022/11/21 02:25:19;;;;;;;33.22;24.98;;;1.30;99.90;;;;;;4980240;28;20132;-42
2022/11/21 02:27:46;;;;;;;36.47;25.77;;;1.30;99.90;;;;;;5011863;28;20058;-41
2022/11/21 02:30:12;;;;;;;35.83;25.77;;;1.30;99.90;;;;;;5006640;28;20061;-46
2022/11/21 02:32:40;;;;;;;36.42;25.35;;;1.30;99.90;;;;;;4984402;28;20092;-43
2022/11/21 02:35:07;;;;;;;34.30;25.65;;;1.30;99.90;;;;;;5039130;28;20502;-42
2022/11/21 02:37:35;;;;;;;39.30;25.60;;;1.30;99.90;;;;;;5053092;28;20441;-47
2022/11/21 02:40:08;;;;;;;36.13;24.92;;;1.30;99.90;;;;;;5054465;28;20079;-42
2022/11/21 02:42:40;;;;;;;;;;;1.20;99.90;;;;;;5048165;28;20052;-42
2022/11/21 02:45:14;;;;;;;35.03;24.48;;;1.30;99.90;;;;;;5045416;28;19925;-44
2022/11/21 02:47:42;;;;;;;39.50;26.48;;;1.20;99.90;;;;;;5048458;28;20044;-42
2022/11/21 02:50:28;;;;;;;34.88;24.98;;;1.20;99.90;;;;;;5054558;28;20535;-42
2022/11/21 02:52:56;;;;;;;34.42;24.17;;;1.20;99.90;;;;;;5052890;28;20423;-43
2022/11/21 02:55:24;;;;;;;33.60;24.20;;;1.20;99.90;;;;;;5053867;28;20593;-44
2022/11/21 02:57:50;;;;;;;36.15;25.17;;;1.20;99.90;;;;;;5054205;28;20044;-42
2022/11/21 03:00:16;;;;;;;37.10;25.52;;;1.20;99.90;;;;;;5050761;28;20045;-46
2022/11/21 03:02:42;;;;;;;35.28;24.67;;;1.10;99.90;;;;;;5036796;28;20052;-44
2022/11/21 03:05:10;;;;;;;34.17;25.13;;;1.10;99.90;;;;;;5050818;28;20141;-43
2022/11/21 03:07:36;;;;;;;38.33;25.73;;;1.00;99.90;;;;;;5052135;28;20056;-45
2022/11/21 03:10:02;;;;;;;37.67;27.00;;;0.90;99.90;;;;;;5053863;28;20059;-42
2022/11/21 03:12:28;;;;;;;36.53;25.73;;;0.80;99.90;;;;;;5054166;28;20044;-44
2022/11/21 03:14:53;;;;;;;32.60;24.30;;;0.70;99.90;;;;;;5052800;28;20053;-43
2022/11/21 03:17:19;;;;;;;36.67;25.60;;;0.60;99.90;;;;;;5054147;28;20073;-42
2022/11/21 03:19:44;;;;;;;36.40;24.27;;;0.60;99.90;;;;;;5053769;28;20474;-41
2022/11/21 03:22:11;;;;;;;35.58;24.63;;;0.40;99.90;;;;;;5050570;28;20390;-42
2022/11/21 03:24:36;;;;;;;36.20;25.25;;;0.40;99.90;;;;;;5053006;28;20053;-44
2022/11/21 03:27:02;;;;;;;37.85;25.35;;;0.30;99.90;;;;;;5053655;28;20055;-42
2022/11/21 03:29:28;;;;;;;35.10;25.30;;;0.30;99.90;;;;;;5053981;28;20918;-43
2022/11/21 03:31:53;;;;;;;34.55;24.13;;;0.20;99.90;;;;;;5053919;28;20066;-47
2022/11/21 03:34:19;;;;;;;36.13;24.65;;;0.10;99.90;;;;;;5053601;28;20049;-47
2022/11/21 03:36:45;;;;;;;34.25;23.92;;;0.10;99.90;;;;;;5053250;28;20096;-41
2022/11/21 03:39:10;;;;;;;38.70;25.58;;;0.10;99.90;;;;;;5053830;28;20316;-42
2022/11/21 03:41:36;;;;;;;38.30;25.52;;;0.10;99.90;;;;;;5053413;28;20087;-42
2022/11/21 03:44:05;;;;;;;37.40;26.00;;;0.10;99.90;;;;;;5052863;28;20048;-42
2022/11/21 03:46:32;;;;;;;39.25;27.02;;;0.20;99.90;;;;;;5039901;28;20497;-42
2022/11/21 03:48:58;;;;;;;36.75;25.75;;;0.20;99.90;;;;;;5054320;28;20133;-42
2022/11/21 03:51:24;;;;;;;40.67;27.13;;;0.20;99.90;;;;;;5053767;28;20045;-45
2022/11/21 03:53:50;;;;;;;34.35;24.65;;;0.30;99.90;;;;;;5053230;28;20502;-45
2022/11/21 03:56:16;;;;;;;39.47;25.92;;;0.30;99.90;;;;;;5053486;28;20071;-44
2022/11/21 03:58:42;;;;;;;35.45;25.90;;;0.20;99.90;;;;;;5056826;28;20560;-42
2022/11/21 04:01:08;;;;;;;33.70;23.90;;;0.20;99.90;;;;;;5056716;28;20227;-42
2022/11/21 04:03:34;;;;;;;41.55;25.17;;;0.30;99.90;;;;;;5056480;28;20122;-42
2022/11/21 04:06:00;;;;;;;36.80;26.63;;;0.20;99.90;;;;;;5056486;28;20051;-44
2022/11/21 04:08:26;;;;;;;36.40;25.10;;;0.30;99.90;;;;;;5055435;28;20048;-42
2022/11/21 04:10:53;;;;;;;38.80;24.38;;;0.30;99.90;;;;;;5056716;28;20052;-42
2022/11/21 04:13:19;;;;;;;35.78;24.38;;;0.30;99.90;;;;;;5056863;28;20041;-41
2022/11/21 04:15:45;;;;;;;39.55;25.10;;;0.30;99.90;;;;;;5055465;28;20049;-45
2022/11/21 04:18:12;;;;;;;34.92;25.98;;;0.30;99.90;;;;;;5056911;28;20113;-42
2022/11/21 04:20:38;;;;;;;41.70;28.77;;;0.30;99.90;;;;;;5055858;28;20354;-47
2022/11/21 04:23:04;;;;;;;47.58;28.95;;;0.30;99.90;;;;;;5054552;28;20079;-42
2022/11/21 04:25:30;;;;;;;42.83;27.92;;;0.20;99.90;;;;;;5054873;28;20569;-43
2022/11/21 04:27:57;;;;;;;40.97;27.83;;;0.20;99.90;;;;;;5055424;28;20044;-41
2022/11/21 04:30:23;;;;;;;43.33;27.90;;;0.10;99.90;;;;;;5057552;28;20040;-44
2022/11/21 04:32:52;;;;;;;34.00;25.80;;;0.10;99.90;;;;;;5057571;28;20059;-41
2022/11/21 04:35:18;;;;;;;37.75;25.58;;;0.00;99.90;;;;;;5056359;28;20055;-42
2022/11/21 04:37:44;;;;;;;38.13;26.88;;;0.00;99.90;;;;;;5055127;28;20053;-43
2022/11/21 04:40:11;;;;;;;36.05;26.60;;;0.00;99.90;;;;;;5053762;28;20088;-41
2022/11/21 04:42:40;;;;;;;42.38;29.00;;;-0.10;99.90;;;;;;5049852;28;20032;-41
2022/11/21 04:45:06;;;;;;;43.22;28.45;;;-0.20;99.90;;;;;;5048211;28;20047;-43
2022/11/21 04:47:34;;;;;;;38.92;25.30;;;-0.20;99.90;;;;;;5049687;28;20059;-43
2022/11/21 04:50:00;;;;;;;35.17;24.80;;;-0.30;99.90;;;;;;5056514;28;20048;-44
2022/11/21 04:52:26;;;;;;;35.10;24.73;;;-0.30;99.90;;;;;;5056228;28;20036;-41
2022/11/21 04:54:51;;;;;;;35.50;24.20;;;-0.40;99.90;;;;;;5054346;28;20476;-42
2022/11/21 04:57:17;;;;;;;32.80;23.20;;;-0.50;99.90;;;;;;5055864;28;20045;-42
2022/11/21 04:59:42;;;;;;;32.30;23.25;;;-0.50;99.90;;;;;;5054133;28;20048;-44
2022/11/21 05:02:08;;;;;;;39.08;26.13;;;-0.60;99.90;;;;;;5040955;28;20404;-42
2022/11/21 05:04:34;;;;;;;35.15;24.73;;;-0.60;99.90;;;;;;5053923;28;20489;-42
2022/11/21 05:06:59;;;;;;;39.33;26.83;;;-0.70;99.90;;;;;;5053679;28;20091;-47
2022/11/21 05:09:25;;;;;;;40.65;25.10;;;-0.70;99.90;;;;;;5054647;28;20122;-42
2022/11/21 05:14:35;;;;;;;39.80;26.63;;;-0.80;99.90;;;;;;5054376;28;20113;-43
2022/11/21 05:17:01;;;;;;;40.80;27.23;;;-0.80;99.90;;;;;;5054987;28;20056;-44
2022/11/21 05:19:26;;;;;;;42.83;27.33;;;-0.80;99.90;;;;;;5055533;28;20696;-42
2022/11/21 05:21:52;;;;;;;43.97;28.33;;;-0.80;99.90;;;;;;5053370;28;20619;-43
2022/11/21 05:24:18;;;;;;;45.72;29.10;;;-0.80;99.90;;;;;;5053269;28;20230;-43
2022/11/21 05:26:44;;;;;;;45.85;28.90;;;-0.90;99.90;;;;;;5054187;28;20044;-43
2022/11/21 05:29:09;;;;;;;47.85;28.67;;;-0.80;99.90;;;;;;5054973;28;20040;-41
2022/11/21 05:31:35;;;;;;;47.25;31.00;;;-0.90;99.90;;;;;;5054705;28;20044;-44
2022/11/21 05:34:00;;;;;;;46.65;27.75;;;-0.90;99.90;;;;;;5054333;28;20049;-42
2022/11/21 05:36:26;;;;;;;42.72;28.50;;;-0.90;99.90;;;;;;5054141;28;20041;-42
2022/11/21 05:38:52;;;;;;;45.40;29.63;;;-0.90;99.90;;;;;;5055452;28;20048;-42
2022/11/21 05:41:17;;;;;;;48.00;30.58;;;-0.90;99.90;;;;;;5054318;28;20041;-41
2022/11/21 05:43:45;;;;;;;47.42;30.15;;;-0.90;99.90;;;;;;5054473;28;20044;-42
2022/11/21 05:46:16;;;;;;;45.38;28.95;;;-1.00;99.90;;;;;;5039535;28;20060;-41
2022/11/21 05:48:42;;;;;;;45.20;28.35;;;-1.00;99.90;;;;;;5055438;28;20052;-43
2022/11/21 05:51:08;;;;;;;48.83;29.10;;;-1.10;99.90;;;;;;5052939;28;20217;-41
2022/11/21 05:53:34;;;;;;;46.10;29.20;;;-1.10;99.90;;;;;;5054120;28;20477;-40
2022/11/21 05:56:03;;;;;;;46.75;29.17;;;-1.10;99.90;;;;;;5054223;28;20418;-42
2022/11/21 05:58:29;;;;;;;51.55;29.48;;;-1.10;99.90;;;;;;5053678;28;20058;-42
2022/11/21 06:00:58;;;;;;;46.95;28.15;;;-1.20;99.90;;;;;;5053269;28;20052;-42
2022/11/21 06:03:29;;;;;;;45.85;29.45;;;-1.10;99.90;;;;;;5053510;28;20485;-45
2022/11/21 06:06:15;;;;;;;47.70;30.85;;;-1.20;99.90;;;;;;5054045;28;20109;-43
2022/11/21 06:08:45;;;;;;;53.25;32.38;;;-1.10;99.90;;;;;;5054709;28;20049;-43
2022/11/21 06:11:15;;;;;;;51.88;31.25;;;-1.10;99.90;;;;;;5055067;28;20087;-44
2022/11/21 06:13:42;;;;;;;48.85;31.02;;;-1.20;99.90;;;;;;5054083;28;20105;-41
2022/11/21 06:16:10;;;;;;;48.38;30.20;;;-1.20;99.90;;;;;;5053967;28;20049;-41
2022/11/21 06:18:38;;;;;;;49.22;29.58;;;-1.20;99.90;;;;;;5054382;28;20048;-42
2022/11/21 06:21:06;;;;;;;55.20;32.03;;;-1.10;99.90;;;;;;5053297;28;20132;-44
2022/11/21 06:23:33;;;;;;;54.33;32.20;;;-1.20;99.90;;;;;;5050653;28;20475;-45
2022/11/21 06:26:02;;;;;;;49.15;30.77;;;-1.20;99.90;;;;;;5053027;28;20052;-43
2022/11/21 06:28:36;;;;;;;47.28;29.27;;;-1.20;99.90;;;;;;5052834;28;20045;-42
2022/11/21 06:31:03;;;;;;;59.60;31.38;;;-1.20;99.90;;;;;;5054329;28;20254;-45
2022/11/21 06:33:29;;;;;;;52.58;31.52;;;-1.20;99.90;;;;;;5054072;28;20218;-44
2022/11/21 06:35:54;;;;;;;59.50;33.17;;;-1.10;99.90;;;;;;5054533;28;20044;-42
2022/11/21 06:38:20;;;;;;;57.53;32.50;;;-1.20;99.90;;;;;;5054913;28;20056;-41
2022/11/21 06:40:46;;;;;;;54.90;32.00;;;-1.20;99.90;;;;;;5054228;28;20185;-46
2022/11/21 06:43:12;;;;;;;58.22;32.47;;;-1.10;99.90;;;;;;5053346;28;20222;-44
2022/11/21 06:45:37;;;;;;;52.85;31.67;;;-1.10;99.90;;;;;;5040828;28;20084;-41
2022/11/21 06:48:03;;;;;;;55.80;32.25;;;-1.10;99.90;;;;;;5052444;28;20044;-43
2022/11/21 06:50:30;;;;;;;55.28;32.00;;;-1.00;99.90;;;;;;5054465;28;20056;-44
2022/11/21 06:52:59;;;;;;;58.67;34.20;;;-0.90;99.90;;;;;;5054222;28;20037;-42
2022/11/21 06:55:26;;;;;;;61.58;34.65;;;-0.90;99.90;;;;;;5053030;28;20044;-42
2022/11/21 06:57:58;;;;;;;58.60;34.75;;;-0.90;99.90;;;;;;5052267;28;20094;-41
2022/11/21 07:00:26;;;;;;;59.42;35.55;;;-0.90;99.90;;;;;;5053603;28;20487;-42
2022/11/21 07:02:53;;;;;;;60.85;33.70;;;-0.80;99.90;;;;;;5054607;28;20063;-42
2022/11/21 07:05:18;;;;;;;59.40;34.22;;;-0.80;99.90;;;;;;5053232;28;20284;-45
2022/11/21 07:07:44;;;;;;;65.15;33.55;;;-0.70;99.90;;;;;;5054324;28;20453;-42
2022/11/21 07:10:10;;;;;;;69.82;34.58;;;-0.70;99.90;;;;;;5054212;28;20447;-41
2022/11/21 07:15:19;;;;;;;64.18;35.55;;;-0.60;99.90;;;;;;5052223;28;20048;-45
2022/11/21 07:17:45;;;;;;;62.58;34.28;;;-0.70;99.90;;;;;;5053432;28;20044;-42
2022/11/21 07:20:11;;;;;;;60.88;34.85;;;-0.60;99.90;;;;;;5052438;28;20059;-41
2022/11/21 07:22:37;;;;;;;62.65;32.88;;;-0.60;99.90;;;;;;5050003;28;20052;-44
2022/11/21 07:25:03;;;;;;;61.40;36.05;;;-0.60;99.90;;;;;;5051799;28;20078;-46
2022/11/21 07:27:29;;;;;;;65.00;36.33;;;-0.70;99.90;;;;;;5052920;28;20127;-43
2022/11/21 07:29:57;;;;;;;57.90;35.20;;;-0.60;99.90;;;;;;5053123;28;20047;-42
2022/11/21 07:32:26;;;;;;;62.47;35.50;;;-0.60;99.90;;;;;;5056038;28;20051;-44
2022/11/21 07:34:53;;;;;;;64.95;37.55;;;-0.60;99.90;;;;;;5056831;28;20131;-44
2022/11/21 07:37:18;;;;;;;64.88;36.42;;;-0.60;99.90;;;;;;5057213;28;20482;-43
2022/11/21 07:39:44;;;;;;;69.10;38.40;;;-0.60;99.90;;;;;;5056899;28;20044;-42
2022/11/21 07:42:10;;;;;;;75.38;40.60;;;-0.60;99.90;;;;;;5051582;28;20052;-41
2022/11/21 07:44:35;;;;;;;87.45;40.03;;;-0.60;99.90;;;;;;5053327;28;20048;-45
2022/11/21 07:47:01;;;;;;;87.80;39.63;;;-0.70;99.90;;;;;;5056811;28;20040;-41
2022/11/21 07:49:27;;;;;;;97.38;38.25;;;-0.70;99.90;;;;;;5054576;28;20060;-43
2022/11/21 07:51:53;;;;;;;84.22;35.92;;;-0.70;99.90;;;;;;5056166;28;20826;-46
2022/11/21 07:54:18;;;;;;;118.25;39.15;;;-0.60;99.90;;;;;;5053411;28;20535;-42
2022/11/21 07:56:44;;;;;;;127.95;38.78;;;-0.60;99.90;;;;;;5056156;28;20044;-41
2022/11/21 07:59:10;;;;;;;161.20;41.38;;;-0.60;99.90;;;;;;5056107;28;20465;-42
2022/11/21 08:01:35;;;;;;;137.88;40.17;;;-0.70;99.90;;;;;;5056496;28;20041;-51
2022/11/21 08:04:01;;;;;;;132.98;41.83;;;-0.50;99.90;;;;;;5055800;28;20272;-41
2022/11/21 08:06:26;;;;;;;122.82;38.28;;;-0.50;99.90;;;;;;5054647;28;20542;-42
2022/11/21 08:08:53;;;;;;;141.23;38.78;;;-0.50;99.90;;;;;;5056520;28;20535;-45
2022/11/21 08:11:19;;;;;;;175.52;42.42;;;-0.40;99.90;;;;;;5056584;28;20044;-42
2022/11/21 08:13:44;;;;;;;161.40;44.05;;;-0.40;99.90;;;;;;5055312;28;20509;-42
2022/11/21 08:16:10;;;;;;;138.13;40.97;;;-0.40;99.90;;;;;;5041868;28;20494;-41
2022/11/21 08:18:36;;;;;;;145.93;43.00;;;-0.40;99.90;;;;;;5041359;28;20066;-46
2022/11/21 08:21:03;;;;;;;125.15;38.45;;;-0.30;99.90;;;;;;5034934;28;20459;-45
2022/11/21 08:23:30;;;;;;;150.13;39.60;;;-0.40;99.90;;;;;;5035321;28;20105;-44
2022/11/21 08:25:55;;;;;;;123.10;37.47;;;-0.20;99.90;;;;;;5036356;28;20071;-44
2022/11/21 08:28:21;;;;;;;124.50;37.83;;;-0.30;99.90;;;;;;5036808;28;20510;-45
2022/11/21 08:30:47;;;;;;;90.90;33.92;;;-0.20;99.90;;;;;;5051228;28;20040;-43
2022/11/21 08:33:13;;;;;;;92.95;32.40;;;-0.20;99.90;;;;;;5055307;28;20059;-42
2022/11/21 08:35:40;;;;;;;79.95;33.63;;;-0.10;99.90;;;;;;5054459;28;20048;-43
2022/11/21 08:38:06;;;;;;;85.65;31.52;;;-0.10;99.90;;;;;;5054618;28;20049;-44
2022/11/21 08:40:33;;;;;;;70.10;28.38;;;-0.10;99.90;;;;;;5056445;28;20056;-44
2022/11/21 08:43:01;;;;;;;91.03;29.42;;;-0.10;99.90;;;;;;5054173;28;20049;-46
2022/11/21 08:45:27;;;;;;;65.03;26.83;;;0.00;99.90;;;;;;5044562;28;20575;-42
2022/11/21 08:47:54;;;;;;;68.75;30.33;;;0.00;99.90;;;;;;5051784;28;20470;-44
2022/11/21 08:50:20;;;;;;;57.17;27.48;;;0.00;99.90;;;;;;5055514;28;20475;-41
2022/11/21 08:52:45;;;;;;;61.55;28.27;;;0.10;99.90;;;;;;5055633;28;20135;-44
2022/11/21 08:55:11;;;;;;;57.35;28.00;;;0.20;99.90;;;;;;5054096;28;20634;-44
2022/11/21 08:57:38;;;;;;;54.22;26.98;;;0.30;99.90;;;;;;5053773;28;20109;-45
2022/11/21 09:00:04;;;;;;;47.53;25.00;;;0.40;99.90;;;;;;5055884;28;20127;-42
2022/11/21 09:02:30;;;;;;;51.92;25.42;;;0.30;99.90;;;;;;5055621;28;20040;-43
2022/11/21 09:04:55;;;;;;;42.42;23.65;;;0.30;99.90;;;;;;5054386;28;20037;-45
2022/11/21 09:07:21;;;;;;;46.30;24.17;;;0.50;99.90;;;;;;5055644;28;20044;-41
2022/11/21 09:09:46;;;;;;;45.78;23.85;;;0.50;99.90;;;;;;5055356;28;20087;-43
2022/11/21 09:12:12;;;;;;;36.60;20.75;;;0.50;99.90;;;;;;5056129;28;21038;-45
2022/11/21 09:20:07;;;;;;;34.97;20.58;;;0.70;99.90;;;;;;5054126;28;20059;-44
2022/11/21 09:22:33;;;;;;;33.90;20.77;;;0.70;99.90;;;;;;5051729;28;20110;-44
2022/11/21 09:24:58;;;;;;;31.73;20.20;;;0.80;99.90;;;;;;5053641;28;20398;-42
2022/11/21 09:27:24;;;;;;;31.88;19.80;;;0.90;99.90;;;;;;5054906;28;20040;-45
2022/11/21 09:29:50;;;;;;;34.65;20.92;;;1.00;99.90;;;;;;5055003;28;20098;-41
2022/11/21 09:32:15;;;;;;;31.02;20.02;;;1.00;99.90;;;;;;5053303;28;20063;-41
2022/11/21 09:34:41;;;;;;;36.10;20.27;;;1.00;99.90;;;;;;5053098;28;20040;-41
2022/11/21 09:37:07;;;;;;;30.05;19.45;;;1.10;99.90;;;;;;5055057;28;20573;-41
2022/11/21 09:39:33;;;;;;;35.42;19.98;;;1.20;99.90;;;;;;5036235;28;20059;-46
2022/11/21 09:42:28;;;;;;;30.77;19.85;;;1.30;99.90;;;;;;5053548;28;20466;-42
2022/11/21 09:45:17;;;;;;;30.27;19.35;;;1.40;99.90;;;;;;5048883;28;20068;-45
2022/11/21 09:47:46;;;;;;;37.53;21.08;;;1.40;99.90;;;;;;4997875;28;20281;-43
2022/11/21 09:50:12;;;;;;;35.47;20.95;;;1.60;99.90;;;;;;4995341;28;20401;-44
2022/11/21 09:52:59;;;;;;;29.80;19.45;;;1.70;99.90;;;;;;4981946;28;20120;-45
2022/11/21 09:55:47;;;;;;;30.95;19.48;;;1.80;99.90;;;;;;5010389;28;20068;-42
2022/11/21 09:58:35;;;;;;;26.67;18.20;;;1.80;99.90;;;;;;4990045;28;21041;-44
2022/11/21 10:01:02;;;;;;;31.10;19.30;;;1.70;99.90;;;;;;5010109;28;20168;-42
2022/11/21 10:03:34;;;;;;;31.08;19.13;;;1.60;99.90;;;;;;5011357;28;20083;-43
2022/11/21 10:06:05;;;;;;;25.20;17.10;;;1.60;99.90;;;;;;5010223;28;20446;-42
2022/11/21 10:08:58;;;;;;;24.42;16.67;;;1.70;99.90;;;;;;5009554;28;20050;-42
2022/11/21 10:14:53;;;;;;;25.30;17.50;;;2.10;99.90;;;;;;4999953;28;20176;-42
2022/11/21 10:17:39;;;;;;;24.10;16.87;;;2.30;99.90;;;;;;5000259;28;20086;-44
2022/11/21 10:20:38;;;;;;;20.13;15.15;;;2.50;99.90;;;;;;5010543;28;20284;-44
2022/11/21 10:23:36;;;;;;;21.20;15.80;;;2.70;99.90;;;;;;5010389;28;20045;-46
2022/11/21 10:26:29;;;;;;;19.73;15.70;;;2.80;99.90;;;;;;4943427;28;20416;-42
2022/11/21 10:29:03;;;;;;;17.45;14.13;;;3.00;99.90;;;;;;4921148;28;20135;-43
2022/11/21 10:31:35;;;;;;;18.10;13.88;;;3.10;99.90;;;;;;4952477;28;20530;-46
2022/11/21 10:34:03;;;;;;;19.48;14.15;;;3.30;99.90;;;;;;4936446;28;20133;-41
2022/11/21 10:36:39;;;;;;;17.38;13.32;;;3.40;99.90;;;;;;4935967;28;20062;-44
2022/11/21 10:39:22;;;;;;;17.15;13.20;;;3.50;99.90;;;;;;4953079;28;20059;-43
2022/11/21 10:42:01;;;;;;;17.50;13.80;;;3.50;99.90;;;;;;4953077;28;20349;-43
2022/11/21 10:47:26;;;;;;;16.25;12.63;;;3.60;99.90;;;;;;4943354;28;20623;-49
2022/11/21 10:50:24;;;;;;;16.17;12.05;;;3.70;99.90;;;;;;4953082;28;20080;-44
2022/11/21 10:53:00;;;;;;;13.73;10.98;;;3.70;99.90;;;;;;4933578;29;20110;-46
2022/11/21 10:55:25;;;;;;;15.38;12.07;;;3.70;99.90;;;;;;4933243;29;20596;-44
2022/11/21 10:57:54;;;;;;;13.27;11.23;;;3.70;99.90;;;;;;4933826;29;20155;-42
2022/11/21 11:00:25;;;;;;;13.75;10.90;;;3.60;99.90;;;;;;4933589;29;20592;-43
2022/11/21 11:03:04;;;;;;;13.93;10.68;;;3.60;99.90;;;;;;4960360;28;20121;-42
2022/11/21 11:05:36;;;;;;;14.05;11.05;;;3.60;99.90;;;;;;5031106;28;20103;-46
2022/11/21 11:08:07;;;;;;;14.65;11.35;;;3.60;99.90;;;;;;5041713;28;20053;-42
2022/11/21 11:10:38;;;;;;;14.45;11.60;;;3.50;99.90;;;;;;5033515;28;20170;-45
2022/11/21 11:13:33;;;;;;;12.52;11.10;;;3.60;99.90;;;;;;5049404;28;20131;-44
2022/11/21 11:16:10;;;;;;;14.18;11.68;;;3.60;99.90;;;;;;5043019;28;20065;-46
2022/11/21 11:18:46;;;;;;;14.57;11.32;;;3.70;99.90;;;;;;5032884;28;20506;-42
2022/11/21 11:21:20;;;;;;;15.63;12.55;;;3.80;99.90;;;;;;5040778;28;20459;-43
2022/11/21 11:23:48;;;;;;;14.10;12.10;;;3.90;99.90;;;;;;5048723;28;20461;-47
2022/11/21 11:26:23;;;;;;;15.10;12.45;;;3.80;99.90;;;;;;5050877;28;20209;-44
2022/11/21 11:28:49;;;;;;;16.90;13.40;;;3.80;99.90;;;;;;5032449;28;20066;-46
2022/11/21 11:31:15;;;;;;;16.80;13.38;;;3.80;99.90;;;;;;5045796;28;20052;-46
2022/11/21 11:33:46;;;;;;;15.02;12.60;;;3.80;99.90;;;;;;5052122;28;20378;-42
2022/11/21 11:36:12;;;;;;;16.90;12.93;;;3.80;99.90;;;;;;5053064;28;20102;-42
2022/11/21 11:38:40;;;;;;;15.77;12.40;;;3.80;99.90;;;;;;5053328;28;20056;-43
2022/11/21 11:47:29;;;;;;;14.57;12.02;;;3.80;99.90;;;;;;5052738;28;20403;-46
2022/11/21 11:47:29;;;;;;;17.58;13.48;;;3.90;99.90;;;;;;4995146;28;20136;-43
2022/11/21 11:50:10;;;;;;;14.27;12.20;;;3.90;99.90;;;;;;5016068;28;20111;-44
2022/11/21 11:52:43;;;;;;;15.55;12.63;;;3.90;99.90;;;;;;5012414;28;20873;-44
2022/11/21 11:55:17;;;;;;;14.50;11.80;;;4.00;99.90;;;;;;4997283;28;20077;-43
2022/11/21 11:57:43;;;;;;;14.13;12.20;;;4.00;99.90;;;;;;5018528;28;20076;-43
2022/11/21 12:00:21;;;;;;;14.27;11.45;;;4.00;99.90;;;;;;5011867;28;20049;-45
2022/11/21 12:02:56;;;;;;;15.15;12.57;;;4.10;99.90;;;;;;5009794;28;20072;-44
2022/11/21 12:05:27;;;;;;;14.05;12.55;;;4.10;99.90;;;;;;5009759;28;20053;-44
2022/11/21 12:08:08;;;;;;;15.18;12.18;;;4.20;99.90;;;;;;5009017;28;20114;-44
2022/11/21 12:13:46;;;;;;;16.90;13.40;;;4.30;99.90;;;;;;5008951;28;20057;-45
2022/11/21 12:16:13;;;;;;;21.42;14.68;;;4.30;99.90;;;;;;5010512;28;20061;-46
2022/11/21 12:18:44;;;;;;;15.35;12.90;;;4.20;99.90;;;;;;5009216;28;20640;-42
2022/11/21 12:21:14;;;;;;;19.17;14.57;;;4.20;99.90;;;;;;5034875;28;20174;-42
2022/11/21 12:23:54;;;;;;;18.70;14.52;;;4.20;99.90;;;;;;5055411;28;20059;-43
2022/11/21 12:26:19;;;;;;;20.05;15.43;;;4.20;99.90;;;;;;5056704;28;20080;-43
2022/11/21 12:28:54;;;;;;;18.88;15.55;;;4.10;99.90;;;;;;5056123;28;20531;-43
2022/11/21 12:31:33;;;;;;;17.60;14.32;;;4.10;99.90;;;;;;5056559;28;20045;-43
2022/11/21 12:34:14;;;;;;;19.02;15.25;;;4.00;99.90;;;;;;5053348;28;20471;-53
2022/11/21 12:36:58;;;;;;;19.45;15.60;;;4.00;99.90;;;;;;5055544;28;20127;-43
2022/11/21 12:39:40;;;;;;;21.50;16.48;;;4.00;99.90;;;;;;5055534;28;20052;-49
2022/11/21 12:45:27;;;;;;;24.30;17.40;;;4.00;99.90;;;;;;5052786;28;20142;-44
2022/11/21 12:54:30;;;;;;;24.33;16.38;;;4.10;99.90;;;;;;5054580;28;20056;-46
2022/11/21 12:57:12;;;;;;;24.55;17.98;;;4.10;99.90;;;;;;5056204;28;20051;-45
2022/11/21 13:00:20;;;;;;;25.45;17.95;;;4.10;99.90;;;;;;5055443;28;20048;-46
2022/11/21 13:03:00;;;;;;;24.25;19.13;;;4.20;99.90;;;;;;5054798;28;20049;-45
2022/11/21 13:05:35;;;;;;;26.80;19.58;;;4.20;99.90;;;;;;5055249;28;20481;-46
2022/11/21 13:08:06;;;;;;;29.92;21.02;;;4.30;99.90;;;;;;5055885;28;20074;-42
2022/11/21 13:10:32;;;;;;;26.42;20.23;;;4.40;99.90;;;;;;5054801;28;20063;-42
2022/11/21 13:13:29;;;;;;;28.05;19.90;;;4.30;99.90;;;;;;5054560;28;20886;-46
2022/11/21 13:16:07;;;;;;;29.35;19.77;;;4.40;99.90;;;;;;5056265;28;20457;-48